createdAt,value
2018-09-16T00:00:48.511Z,23.3
2018-09-16T00:01:38.568Z,23.3
2018-09-16T00:02:28.995Z,23.3
2018-09-16T00:03:18.760Z,23.3
2018-09-16T00:04:08.508Z,23.3
2018-09-16T00:04:58.856Z,23.3
2018-09-16T00:05:48.636Z,23.2
2018-09-16T00:06:38.438Z,23.3
2018-09-16T00:07:28.773Z,23.2
2018-09-16T00:08:18.566Z,23.3
2018-09-16T00:09:09.198Z,23.3
2018-09-16T00:09:59.258Z,23.2
2018-09-16T00:10:49.545Z,23.3
2018-09-16T00:11:38.543Z,23.2
2018-09-16T00:12:29.718Z,23.2
2018-09-16T00:13:19.518Z,23.3
2018-09-16T00:14:09.591Z,23.3
2018-09-16T00:14:59.308Z,23.2
2018-09-16T00:15:49.275Z,23.3
2018-09-16T00:16:38.888Z,23.3
2018-09-16T00:17:29.520Z,23.2
2018-09-16T00:18:19.857Z,23.2
2018-09-16T00:19:09.098Z,23.3
2018-09-16T00:20:00.292Z,23.3
2018-09-16T00:20:50.085Z,23.2
2018-09-16T00:21:39.592Z,23.2
2018-09-16T00:22:30.217Z,23.2
2018-09-16T00:23:19.879Z,23.3
2018-09-16T00:24:09.450Z,23.3
2018-09-16T00:25:00.669Z,23.2
2018-09-16T00:25:51.222Z,23.3
2018-09-16T00:26:39.692Z,23.2
2018-09-16T00:27:29.729Z,23.3
2018-09-16T00:28:20.932Z,23.2
2018-09-16T00:29:11.017Z,23.2
2018-09-16T00:30:00.184Z,23.2
2018-09-16T00:30:50.529Z,23.2
2018-09-16T00:31:40.580Z,23.2
2018-09-16T00:32:30.969Z,23.2
2018-09-16T00:33:20.171Z,23.2
2018-09-16T00:34:10.514Z,23.2
2018-09-16T00:35:00.899Z,23.2
2018-09-16T00:35:51.791Z,23.2
2018-09-16T00:36:41.525Z,23.2
2018-09-16T00:56:11.255Z,23.1
2018-09-16T00:57:00.850Z,23.2
2018-09-16T00:57:50.635Z,23.2
2018-09-16T00:58:40.945Z,23.2
2018-09-16T00:59:31.317Z,23.2
2018-09-16T01:00:21.377Z,23.2
2018-09-16T01:01:10.835Z,23.2
2018-09-16T01:02:01.220Z,23.2
2018-09-16T01:02:50.974Z,23.2
2018-09-16T01:03:40.444Z,23.2
2018-09-16T01:04:31.470Z,23.2
2018-09-16T01:05:21.449Z,23.2
2018-09-16T01:06:11.547Z,23.2
2018-09-16T01:07:01.527Z,23.2
2018-09-16T01:07:51.912Z,23.2
2018-09-16T01:08:41.732Z,23.2
2018-09-16T01:09:31.448Z,23.2
2018-09-16T01:10:21.249Z,23.1
2018-09-16T01:11:12.151Z,23.2
2018-09-16T01:12:01.386Z,23.2
2018-09-16T01:12:51.239Z,23.2
2018-09-16T01:13:41.826Z,23.2
2018-09-16T01:14:31.572Z,23.2
2018-09-16T01:15:21.349Z,23.1
2018-09-16T01:16:11.966Z,23.2
2018-09-16T01:17:02.611Z,23.2
2018-09-16T01:17:52.448Z,23.1
2018-09-16T01:18:42.245Z,23.1
2018-09-16T01:19:32.274Z,23.1
2018-09-16T01:20:21.985Z,23.2
2018-09-16T01:21:12.985Z,23.2
2018-09-16T01:22:02.196Z,23.2
2018-09-16T01:22:51.910Z,23.1
2018-09-16T01:23:42.573Z,23.2
2018-09-16T01:24:32.928Z,23.2
2018-09-16T01:25:22.458Z,23.1
2018-09-16T01:26:13.233Z,23.1
2018-09-16T01:27:03.418Z,23.1
2018-09-16T01:27:53.217Z,23.1
2018-09-16T01:28:42.728Z,23.1
2018-09-16T01:29:33.091Z,23.1
2018-09-16T01:30:23.367Z,23.2
2018-09-16T01:31:12.750Z,23.1
2018-09-16T01:32:03.555Z,23.1
2018-09-16T01:32:53.552Z,23.1
2018-09-16T01:33:42.468Z,23.2
2018-09-16T01:34:33.167Z,23.1
2018-09-16T01:35:23.732Z,23.1
2018-09-16T01:36:13.244Z,23.1
2018-09-16T01:37:03.877Z,23.1
2018-09-16T01:37:53.905Z,23.1
2018-09-16T01:38:44.008Z,23.1
2018-09-16T01:39:33.466Z,23.1
2018-09-16T01:40:23.797Z,23.1
2018-09-16T01:41:15.170Z,23.1
2018-09-16T01:42:04.241Z,23.1
2018-09-16T01:42:54.283Z,23.1
2018-09-16T01:43:44.069Z,23.1
2018-09-16T01:44:34.128Z,23.1
2018-09-16T01:45:24.200Z,23.1
2018-09-16T01:46:14.471Z,23.1
2018-09-16T01:47:05.040Z,23.1
2018-09-16T01:47:54.379Z,23.1
2018-09-16T01:48:44.204Z,23.1
2018-09-16T01:49:34.239Z,23.1
2018-09-16T01:50:24.297Z,23.1
2018-09-16T01:51:15.496Z,23.1
2018-09-16T01:52:05.697Z,23.1
2018-09-16T01:52:54.804Z,23.1
2018-09-16T01:53:44.269Z,23.1
2018-09-16T01:54:34.614Z,23.1
2018-09-16T01:55:25.248Z,23.1
2018-09-16T01:56:15.011Z,23.1
2018-09-16T01:57:05.326Z,23.1
2018-09-16T01:57:54.581Z,23.1
2018-09-16T01:58:45.866Z,23.1
2018-09-16T01:59:35.571Z,23.1
2018-09-16T02:00:25.338Z,23.1
2018-09-16T02:01:15.367Z,23.1
2018-09-16T02:02:06.025Z,23.1
2018-09-16T02:02:55.851Z,23.1
2018-09-16T02:03:45.916Z,23.1
2018-09-16T02:04:35.918Z,23.1
2018-09-16T02:05:25.118Z,23.1
2018-09-16T02:06:15.490Z,23.1
2018-09-16T02:07:05.823Z,23.1
2018-09-16T02:07:55.953Z,23.1
2018-09-16T02:08:46.261Z,23.1
2018-09-16T02:09:35.466Z,23.1
2018-09-16T02:10:25.511Z,23.1
2018-09-16T02:11:16.733Z,23.1
2018-09-16T02:12:06.565Z,23.1
2018-09-16T02:12:56.515Z,23.1
2018-09-16T02:13:46.059Z,23
2018-09-16T02:14:35.575Z,23.1
2018-09-16T02:15:25.867Z,23.1
2018-09-16T02:16:16.880Z,23
2018-09-16T02:17:06.617Z,23.1
2018-09-16T02:17:56.129Z,23.1
2018-09-16T02:18:45.845Z,23.1
2018-09-16T02:19:37.071Z,23.1
2018-09-16T02:20:26.319Z,23.1
2018-09-16T02:21:17.199Z,23.1
2018-09-16T02:22:07.032Z,23.1
2018-09-16T02:22:57.355Z,23.1
2018-09-16T02:23:47.708Z,23
2018-09-16T02:24:37.427Z,23
2018-09-16T02:25:26.944Z,23.1
2018-09-16T02:26:17.276Z,23
2018-09-16T02:27:07.462Z,23
2018-09-16T02:27:57.219Z,23
2018-09-16T02:28:47.494Z,23
2018-09-16T02:29:37.231Z,23
2018-09-16T02:30:27.602Z,23
2018-09-16T02:31:17.669Z,23
2018-09-16T02:32:08.513Z,23
2018-09-16T02:32:57.797Z,23
2018-09-16T02:33:48.176Z,23
2018-09-16T02:34:38.502Z,23
2018-09-16T02:35:28.266Z,22.9
2018-09-16T02:36:18.348Z,23
2018-09-16T02:37:08.722Z,23
2018-09-16T02:37:58.777Z,22.9
2018-09-16T02:38:48.244Z,23
2018-09-16T02:39:38.544Z,23
2018-09-16T02:40:28.406Z,23
2018-09-16T02:41:18.443Z,22.9
2018-09-16T02:42:08.515Z,22.9
2018-09-16T02:42:58.746Z,22.9
2018-09-16T02:43:48.937Z,23
2018-09-16T02:44:38.376Z,22.9
2018-09-16T02:45:28.493Z,22.9
2018-09-16T02:46:18.623Z,22.9
2018-09-16T02:47:08.368Z,22.9
2018-09-16T02:47:58.077Z,22.9
2018-09-16T02:48:49.038Z,22.9
2018-09-16T02:49:39.076Z,23
2018-09-16T02:50:29.184Z,22.9
2018-09-16T02:51:19.183Z,22.9
2018-09-16T02:52:08.972Z,22.9
2018-09-16T02:52:59.607Z,22.9
2018-09-16T02:53:49.390Z,22.9
2018-09-16T02:54:39.735Z,22.9
2018-09-16T02:55:29.801Z,22.9
2018-09-16T02:56:19.555Z,22.9
2018-09-16T02:57:09.941Z,22.9
2018-09-16T02:57:59.385Z,22.9
2018-09-16T02:58:50.278Z,22.9
2018-09-16T02:59:40.125Z,22.9
2018-09-16T03:00:30.248Z,22.9
2018-09-16T03:01:20.255Z,22.9
2018-09-16T03:02:09.757Z,22.9
2018-09-16T03:03:01.060Z,22.9
2018-09-16T03:03:50.482Z,22.9
2018-09-16T03:04:40.504Z,22.9
2018-09-16T03:05:30.816Z,22.9
2018-09-16T03:06:20.372Z,22.9
2018-09-16T03:07:10.748Z,22.9
2018-09-16T03:08:00.259Z,22.9
2018-09-16T03:08:49.931Z,22.9
2018-09-16T03:09:40.854Z,22.9
2018-09-16T03:10:31.029Z,22.9
2018-09-16T03:11:21.116Z,22.9
2018-09-16T03:12:10.488Z,22.9
2018-09-16T03:13:01.203Z,22.9
2018-09-16T03:13:51.272Z,22.9
2018-09-16T03:14:40.778Z,22.9
2018-09-16T03:15:30.761Z,22.9
2018-09-16T03:16:20.849Z,22.9
2018-09-16T03:17:11.424Z,22.9
2018-09-16T03:18:01.161Z,22.9
2018-09-16T03:18:51.350Z,22.9
2018-09-16T03:19:41.021Z,22.9
2018-09-16T03:20:31.654Z,22.9
2018-09-16T03:21:21.474Z,22.9
2018-09-16T03:22:10.968Z,22.9
2018-09-16T03:23:01.676Z,22.9
2018-09-16T03:23:51.958Z,22.9
2018-09-16T03:24:42.048Z,22.9
2018-09-16T03:25:32.965Z,22.9
2018-09-16T03:26:21.891Z,22.9
2018-09-16T03:27:11.619Z,22.9
2018-09-16T03:28:01.943Z,22.9
2018-09-16T03:28:52.016Z,22.9
2018-09-16T03:29:42.203Z,22.9
2018-09-16T03:30:32.879Z,22.9
2018-09-16T03:31:21.733Z,22.9
2018-09-16T03:32:12.623Z,22.9
2018-09-16T03:33:02.709Z,22.9
2018-09-16T03:33:52.096Z,22.9
2018-09-16T03:34:42.476Z,22.8
2018-09-16T03:35:32.773Z,22.9
2018-09-16T03:36:21.814Z,22.8
2018-09-16T03:37:12.975Z,22.8
2018-09-16T03:38:03.290Z,22.8
2018-09-16T03:38:52.497Z,22.8
2018-09-16T03:39:42.866Z,22.8
2018-09-16T03:40:33.410Z,22.8
2018-09-16T03:41:23.469Z,22.8
2018-09-16T03:42:12.803Z,22.8
2018-09-16T03:43:02.843Z,22.8
2018-09-16T03:43:53.235Z,22.8
2018-09-16T03:44:43.545Z,22.8
2018-09-16T03:45:33.888Z,22.8
2018-09-16T03:46:23.467Z,22.8
2018-09-16T03:47:13.460Z,22.8
2018-09-16T03:48:02.628Z,22.8
2018-09-16T03:48:53.599Z,22.8
2018-09-16T03:49:43.692Z,22.8
2018-09-16T03:50:34.328Z,22.8
2018-09-16T03:51:24.052Z,22.8
2018-09-16T03:52:13.837Z,22.8
2018-09-16T03:53:04.172Z,22.8
2018-09-16T03:53:53.937Z,22.8
2018-09-16T03:54:44.075Z,22.8
2018-09-16T03:55:34.747Z,22.8
2018-09-16T03:56:24.317Z,22.8
2018-09-16T03:57:13.893Z,22.8
2018-09-16T03:58:04.270Z,22.8
2018-09-16T03:58:54.873Z,22.8
2018-09-16T03:59:44.064Z,22.8
2018-09-16T04:00:34.744Z,22.8
2018-09-16T04:01:25.122Z,22.8
2018-09-16T04:02:15.174Z,22.8
2018-09-16T04:03:04.647Z,22.8
2018-09-16T04:03:55.003Z,22.7
2018-09-16T04:04:44.753Z,22.8
2018-09-16T04:05:35.064Z,22.8
2018-09-16T04:06:24.894Z,22.8
2018-09-16T04:07:14.971Z,22.8
2018-09-16T04:08:05.352Z,22.8
2018-09-16T04:08:54.808Z,22.8
2018-09-16T04:09:45.158Z,22.7
2018-09-16T04:10:35.846Z,22.7
2018-09-16T04:11:25.562Z,22.7
2018-09-16T04:12:15.614Z,22.7
2018-09-16T04:13:05.373Z,22.7
2018-09-16T04:13:56.478Z,22.8
2018-09-16T04:14:45.833Z,22.7
2018-09-16T04:15:35.290Z,22.7
2018-09-16T04:16:25.957Z,22.8
2018-09-16T04:17:15.761Z,22.7
2018-09-16T04:18:05.781Z,22.7
2018-09-16T04:18:55.863Z,22.7
2018-09-16T04:19:45.890Z,22.7
2018-09-16T04:20:35.655Z,22.7
2018-09-16T04:21:26.331Z,22.7
2018-09-16T04:22:16.410Z,22.7
2018-09-16T04:23:06.153Z,22.7
2018-09-16T04:23:56.510Z,22.7
2018-09-16T04:24:46.571Z,22.7
2018-09-16T04:25:36.313Z,22.7
2018-09-16T04:26:26.928Z,22.7
2018-09-16T04:27:16.617Z,22.7
2018-09-16T04:28:06.891Z,22.7
2018-09-16T04:28:57.178Z,22.7
2018-09-16T04:29:46.753Z,22.7
2018-09-16T04:30:36.535Z,22.7
2018-09-16T04:31:26.657Z,22.7
2018-09-16T04:32:17.459Z,22.7
2018-09-16T04:33:07.227Z,22.6
2018-09-16T04:33:56.426Z,22.7
2018-09-16T04:34:47.357Z,22.7
2018-09-16T04:35:37.399Z,22.6
2018-09-16T04:36:27.249Z,22.6
2018-09-16T04:37:16.980Z,22.7
2018-09-16T04:38:07.851Z,22.6
2018-09-16T04:38:57.441Z,22.7
2018-09-16T04:39:47.707Z,22.6
2018-09-16T04:40:37.506Z,22.7
2018-09-16T04:41:27.814Z,22.6
2018-09-16T04:42:17.294Z,22.7
2018-09-16T04:43:07.631Z,22.6
2018-09-16T04:43:58.548Z,22.7
2018-09-16T04:44:48.169Z,22.7
2018-09-16T04:45:37.586Z,22.7
2018-09-16T04:46:27.316Z,22.7
2018-09-16T04:47:18.038Z,22.7
2018-09-16T04:48:08.034Z,22.7
2018-09-16T04:48:58.396Z,22.7
2018-09-16T04:49:48.993Z,22.7
2018-09-16T04:50:38.808Z,22.7
2018-09-16T04:51:28.853Z,22.7
2018-09-16T04:52:18.138Z,22.7
2018-09-16T04:53:08.804Z,22.8
2018-09-16T04:53:58.460Z,22.8
2018-09-16T04:54:49.102Z,22.8
2018-09-16T04:55:38.625Z,22.8
2018-09-16T04:56:28.683Z,22.8
2018-09-16T04:57:18.792Z,22.8
2018-09-16T04:58:08.268Z,22.8
2018-09-16T04:58:58.575Z,22.8
2018-09-16T04:59:48.721Z,22.8
2018-09-16T05:00:39.113Z,22.8
2018-09-16T05:01:29.574Z,22.8
2018-09-16T05:02:19.409Z,22.8
2018-09-16T05:03:08.917Z,22.8
2018-09-16T05:03:59.819Z,22.8
2018-09-16T05:04:49.310Z,22.8
2018-09-16T05:05:39.661Z,22.8
2018-09-16T05:06:29.693Z,22.8
2018-09-16T05:07:20.100Z,22.8
2018-09-16T05:25:03.284Z,23.1
2018-09-16T05:25:53.343Z,23.1
2018-09-16T05:26:42.984Z,23.1
2018-09-16T05:27:33.601Z,23.1
2018-09-16T05:28:23.381Z,23.1
2018-09-16T05:29:13.458Z,23.1
2018-09-16T05:30:03.916Z,23.1
2018-09-16T05:30:53.083Z,23.1
2018-09-16T05:31:42.858Z,23.1
2018-09-16T05:32:34.230Z,23.1
2018-09-16T05:33:23.458Z,23.1
2018-09-16T05:34:13.525Z,23.1
2018-09-16T05:35:03.870Z,23.1
2018-09-16T05:35:53.974Z,23.1
2018-09-16T05:36:43.440Z,23.1
2018-09-16T05:37:33.551Z,23.1
2018-09-16T05:38:22.958Z,23.1
2018-09-16T05:39:14.173Z,23.1
2018-09-16T05:40:03.669Z,23.1
2018-09-16T05:40:54.603Z,23.3
2018-09-16T05:41:44.321Z,23.8
2018-09-16T05:42:33.290Z,24.9
2018-09-16T05:43:24.731Z,26.5
2018-09-16T05:44:13.730Z,27.1
2018-09-16T05:45:04.893Z,26.9
2018-09-16T05:45:54.088Z,26.5
2018-09-16T05:46:44.716Z,26.2
2018-09-16T05:47:33.945Z,26.2
2018-09-16T05:48:24.877Z,26.4
2018-09-16T05:49:14.657Z,26.6
2018-09-16T05:50:04.755Z,26.9
2018-09-16T05:50:55.638Z,27.1
2018-09-16T05:51:45.720Z,27.1
2018-09-16T05:52:35.344Z,27.1
2018-09-16T05:53:27.695Z,27
2018-09-16T05:54:15.015Z,27.1
2018-09-16T05:55:05.079Z,27.1
2018-09-16T05:55:55.717Z,27.3
2018-09-16T05:56:45.153Z,27.4
2018-09-16T05:57:35.629Z,27.6
2018-09-16T05:58:25.352Z,27.6
2018-09-16T05:59:16.104Z,27.8
2018-09-16T06:00:56.352Z,27.9
2018-09-16T06:01:45.174Z,28
2018-09-16T06:02:35.453Z,28.2
2018-09-16T06:03:24.974Z,28.3
2018-09-16T06:04:15.839Z,28.4
2018-09-16T06:05:06.160Z,28.6
2018-09-16T06:05:56.091Z,28.7
2018-09-16T06:06:47.104Z,28.8
2018-09-16T06:07:35.724Z,28.9
2018-09-16T06:08:25.701Z,29
2018-09-16T06:09:16.249Z,29.1
2018-09-16T06:10:06.839Z,29.2
2018-09-16T06:10:57.382Z,29.3
2018-09-16T06:11:46.316Z,29.4
2018-09-16T06:12:36.419Z,29.5
2018-09-16T06:13:25.899Z,29.6
2018-09-16T06:14:16.965Z,29.7
2018-09-16T06:15:07.006Z,29.8
2018-09-16T06:15:57.284Z,29.9
2018-09-16T06:16:46.795Z,30.1
2018-09-16T06:17:37.068Z,30.2
2018-09-16T06:18:26.593Z,30.3
2018-09-16T06:19:17.362Z,30.4
2018-09-16T06:20:07.049Z,30.5
2018-09-16T06:20:56.458Z,30.6
2018-09-16T06:21:47.690Z,30.7
2018-09-16T06:22:38.196Z,30.8
2018-09-16T06:23:27.650Z,30.9
2018-09-16T06:24:17.321Z,31.1
2018-09-16T06:25:07.431Z,31.2
2018-09-16T06:25:57.988Z,31.3
2018-09-16T06:26:46.998Z,31.4
2018-09-16T06:27:36.745Z,31.5
2018-09-16T06:28:26.825Z,31.6
2018-09-16T06:29:16.903Z,31.8
2018-09-16T06:30:07.273Z,31.9
2018-09-16T06:30:57.919Z,32
2018-09-16T06:31:47.962Z,32.1
2018-09-16T06:32:37.979Z,32.3
2018-09-16T06:33:28.336Z,32.3
2018-09-16T06:34:18.138Z,32.4
2018-09-16T06:35:07.912Z,32.6
2018-09-16T06:35:58.280Z,32.7
2018-09-16T06:36:48.034Z,32.8
2018-09-16T06:37:38.152Z,32.9
2018-09-16T06:38:28.739Z,33
2018-09-16T06:39:18.590Z,33.1
2018-09-16T06:40:08.290Z,33.3
2018-09-16T06:40:58.646Z,33.4
2018-09-16T06:41:49.501Z,33.5
2018-09-16T06:42:38.195Z,33.6
2018-09-16T06:43:27.944Z,33.8
2018-09-16T06:44:18.614Z,33.8
2018-09-16T06:45:08.942Z,33.7
2018-09-16T06:45:58.436Z,33.5
2018-09-16T06:46:48.491Z,33.4
2018-09-16T06:47:38.870Z,33.5
2018-09-16T06:48:29.226Z,33.6
2018-09-16T06:49:19.497Z,33.8
2018-09-16T06:50:09.337Z,34.1
2018-09-16T06:51:00.889Z,34.3
2018-09-16T06:51:49.463Z,34.4
2018-09-16T06:52:38.733Z,34.6
2018-09-16T06:53:28.861Z,34.7
2018-09-16T06:54:18.745Z,34.8
2018-09-16T06:55:08.729Z,34.9
2018-09-16T06:55:59.027Z,35.1
2018-09-16T06:56:48.805Z,35.3
2018-09-16T06:57:39.929Z,35.4
2018-09-16T06:58:29.688Z,35.5
2018-09-16T06:59:19.170Z,35.7
2018-09-16T07:00:10.333Z,35.8
2018-09-16T07:01:00.744Z,35.9
2018-09-16T07:01:49.155Z,36
2018-09-16T07:02:40.040Z,36.2
2018-09-16T07:03:30.096Z,36.3
2018-09-16T07:04:20.365Z,36.4
2018-09-16T07:05:09.635Z,36.6
2018-09-16T07:05:59.463Z,36.7
2018-09-16T07:06:50.416Z,36.8
2018-09-16T07:07:40.588Z,36.9
2018-09-16T07:08:32.042Z,37.1
2018-09-16T07:09:20.538Z,37.2
2018-09-16T07:10:11.357Z,37.4
2018-09-16T07:11:01.125Z,37.4
2018-09-16T07:11:50.950Z,37.6
2018-09-16T07:12:40.538Z,37.8
2018-09-16T07:13:31.277Z,37.9
2018-09-16T07:14:22.203Z,38
2018-09-16T07:15:11.345Z,38.1
2018-09-16T07:16:00.740Z,38
2018-09-16T07:16:51.860Z,38.1
2018-09-16T07:17:41.992Z,38.2
2018-09-16T07:18:32.282Z,38.4
2018-09-16T07:19:21.269Z,38.6
2018-09-16T07:20:12.800Z,38.8
2018-09-16T07:21:00.427Z,38.9
2018-09-16T07:21:51.467Z,39.1
2018-09-16T07:22:41.459Z,39.2
2018-09-16T07:23:31.952Z,39.4
2018-09-16T07:24:21.590Z,39.6
2018-09-16T07:25:11.335Z,39.8
2018-09-16T07:26:01.687Z,39.9
2018-09-16T07:26:52.752Z,40
2018-09-16T07:27:42.165Z,39.9
2018-09-16T07:28:31.694Z,39.9
2018-09-16T07:29:21.982Z,39.9
2018-09-16T07:30:12.451Z,39.9
2018-09-16T07:31:02.631Z,39.8
2018-09-16T07:31:52.164Z,39.7
2018-09-16T07:32:41.824Z,39.7
2018-09-16T07:33:32.328Z,39.8
2018-09-16T07:34:22.575Z,39.8
2018-09-16T07:35:11.857Z,39.8
2018-09-16T07:36:02.262Z,39.9
2018-09-16T07:36:51.809Z,40.1
2018-09-16T07:37:41.896Z,40.1
2018-09-16T07:38:32.196Z,40.1
2018-09-16T07:39:22.715Z,40.2
2018-09-16T07:40:13.330Z,40.4
2018-09-16T07:41:02.371Z,40.6
2018-09-16T07:41:52.978Z,40.8
2018-09-16T07:42:42.540Z,41
2018-09-16T07:43:33.027Z,41.1
2018-09-16T07:44:22.669Z,41.3
2018-09-16T07:45:14.029Z,41.4
2018-09-16T07:46:03.265Z,41.5
2018-09-16T07:46:53.830Z,41.5
2018-09-16T07:47:43.671Z,41.4
2018-09-16T07:48:33.450Z,41.3
2018-09-16T07:49:24.058Z,41.3
2018-09-16T07:50:13.598Z,41.2
2018-09-16T07:51:03.653Z,41.2
2018-09-16T07:51:54.527Z,41.2
2018-09-16T07:52:43.073Z,41.3
2018-09-16T07:53:33.515Z,41.2
2018-09-16T07:54:23.430Z,41.2
2018-09-16T07:55:12.667Z,41.1
2018-09-16T07:56:03.705Z,41.1
2018-09-16T07:56:54.098Z,41.1
2018-09-16T07:57:44.625Z,41.1
2018-09-16T07:58:33.926Z,41.1
2018-09-16T07:59:23.985Z,41.1
2018-09-16T08:00:13.733Z,41.1
2018-09-16T08:01:04.247Z,41
2018-09-16T08:01:54.185Z,41
2018-09-16T08:02:43.995Z,41
2018-09-16T08:03:34.301Z,41
2018-09-16T08:04:24.333Z,41
2018-09-16T08:05:14.685Z,41
2018-09-16T08:06:05.629Z,41
2018-09-16T08:06:54.849Z,41
2018-09-16T08:07:44.077Z,41.1
2018-09-16T08:08:34.708Z,41.1
2018-09-16T08:09:24.807Z,41.1
2018-09-16T08:10:14.859Z,41.1
2018-09-16T08:11:04.584Z,41.1
2018-09-16T08:11:55.029Z,41.1
2018-09-16T08:12:45.095Z,41.1
2018-09-16T08:13:36.021Z,41.1
2018-09-16T08:14:24.949Z,41.1
2018-09-16T08:15:15.595Z,41.1
2018-09-16T08:16:05.897Z,41.1
2018-09-16T08:16:55.893Z,41.2
2018-09-16T08:17:46.487Z,41.3
2018-09-16T08:18:35.565Z,41.3
2018-09-16T08:19:25.579Z,41.4
2018-09-16T08:20:15.839Z,41.4
2018-09-16T08:21:07.082Z,41.6
2018-09-16T08:21:55.093Z,41.9
2018-09-16T08:22:47.049Z,42.3
2018-09-16T08:23:37.954Z,42.4
2018-09-16T08:24:25.919Z,42.5
2018-09-16T08:25:15.393Z,42.5
2018-09-16T08:26:06.304Z,42.6
2018-09-16T08:26:56.943Z,42.8
2018-09-16T08:27:47.015Z,43.1
2018-09-16T08:28:38.806Z,43.4
2018-09-16T08:29:26.080Z,43.7
2018-09-16T08:30:17.245Z,43.9
2018-09-16T08:31:06.958Z,44
2018-09-16T08:31:56.103Z,44
2018-09-16T08:32:47.093Z,43.9
2018-09-16T08:33:37.141Z,43.9
2018-09-16T08:34:26.930Z,44.1
2018-09-16T08:35:17.818Z,44.4
2018-09-16T08:36:07.049Z,44.7
2018-09-16T08:36:57.616Z,44.9
2018-09-16T08:37:47.447Z,45.1
2018-09-16T08:38:37.238Z,45.3
2018-09-16T08:39:27.325Z,45.4
2018-09-16T08:40:17.705Z,45.4
2018-09-16T08:41:07.149Z,45.4
2018-09-16T08:41:57.726Z,45.5
2018-09-16T08:42:47.275Z,45.7
2018-09-16T08:43:37.323Z,45.9
2018-09-16T08:44:27.408Z,46
2018-09-16T08:45:18.284Z,46.1
2018-09-16T08:46:07.822Z,46.1
2018-09-16T08:46:57.915Z,46
2018-09-16T08:47:47.377Z,46
2018-09-16T08:48:38.200Z,46.2
2018-09-16T08:49:27.755Z,46.4
2018-09-16T08:50:17.847Z,46.7
2018-09-16T08:51:07.874Z,46.9
2018-09-16T08:51:58.014Z,47.1
2018-09-16T08:52:47.452Z,47.2
2018-09-16T08:53:38.379Z,47.3
2018-09-16T08:54:27.884Z,47.4
2018-09-16T08:55:18.744Z,47.4
2018-09-16T08:56:08.856Z,47.5
2018-09-16T08:56:58.606Z,47.6
2018-09-16T08:57:48.522Z,47.6
2018-09-16T08:58:39.178Z,47.6
2018-09-16T08:59:28.543Z,47.7
2018-09-16T09:00:17.998Z,47.9
2018-09-16T09:01:09.186Z,48.1
2018-09-16T09:01:59.043Z,48.3
2018-09-16T09:02:49.075Z,48.5
2018-09-16T09:03:39.141Z,48.7
2018-09-16T09:04:30.043Z,48.8
2018-09-16T09:05:19.556Z,48.9
2018-09-16T09:06:08.720Z,49.1
2018-09-16T09:06:59.123Z,49.3
2018-09-16T09:07:49.258Z,49.4
2018-09-16T09:08:38.948Z,49.6
2018-09-16T09:09:29.334Z,49.7
2018-09-16T09:10:19.903Z,49.8
2018-09-16T09:11:10.565Z,50
2018-09-16T09:12:00.931Z,50.1
2018-09-16T09:12:49.080Z,50.3
2018-09-16T09:13:39.888Z,50.4
2018-09-16T09:14:31.853Z,50.5
2018-09-16T09:15:18.941Z,50.6
2018-09-16T09:16:09.878Z,50.8
2018-09-16T09:16:59.828Z,50.9
2018-09-16T09:17:49.922Z,51
2018-09-16T09:18:40.440Z,51.2
2018-09-16T09:19:30.511Z,51.3
2018-09-16T09:20:19.415Z,51.4
2018-09-16T09:21:09.610Z,51.6
2018-09-16T09:22:01.047Z,51.7
2018-09-16T09:22:50.587Z,51.9
2018-09-16T09:39:32.062Z,54.3
2018-09-16T09:40:21.026Z,54.4
2018-09-16T09:41:11.114Z,54.5
2018-09-16T09:42:01.419Z,54.6
2018-09-16T09:42:52.617Z,54.7
2018-09-16T09:43:41.855Z,54.8
2018-09-16T09:44:32.203Z,54.9
2018-09-16T09:45:21.143Z,55
2018-09-16T09:46:12.025Z,55.1
2018-09-16T09:47:02.140Z,55.2
2018-09-16T09:47:51.874Z,55.3
2018-09-16T09:48:42.289Z,55.4
2018-09-16T09:49:32.296Z,55.5
2018-09-16T09:50:21.624Z,55.6
2018-09-16T09:51:12.653Z,55.5
2018-09-16T09:52:01.409Z,55.6
2018-09-16T09:52:52.269Z,55.7
2018-09-16T09:53:42.127Z,55.8
2018-09-16T09:54:32.672Z,55.9
2018-09-16T09:55:22.173Z,55.8
2018-09-16T09:56:12.243Z,55.6
2018-09-16T09:57:02.166Z,55.3
2018-09-16T09:57:53.079Z,55.1
2018-09-16T09:58:43.782Z,55.2
2018-09-16T09:59:34.138Z,55.6
2018-09-16T10:00:23.794Z,55.8
2018-09-16T10:01:13.481Z,56
2018-09-16T10:02:02.681Z,56.1
2018-09-16T10:02:53.041Z,56.3
2018-09-16T10:03:43.051Z,56.4
2018-09-16T10:04:32.949Z,56.5
2018-09-16T10:05:24.328Z,56.6
2018-09-16T10:06:13.700Z,56.7
2018-09-16T10:07:03.591Z,56.8
2018-09-16T10:07:53.961Z,56.9
2018-09-16T10:08:43.738Z,57
2018-09-16T10:09:33.511Z,57.1
2018-09-16T10:10:23.866Z,57.1
2018-09-16T10:11:13.923Z,57.2
2018-09-16T10:12:03.720Z,57.3
2018-09-16T10:12:53.764Z,57.4
2018-09-16T10:13:43.862Z,57.4
2018-09-16T10:14:35.550Z,57.5
2018-09-16T10:15:24.280Z,57.6
2018-09-16T10:16:14.377Z,57.6
2018-09-16T10:18:44.521Z,57.9
2018-09-16T10:19:34.860Z,57.9
2018-09-16T10:20:24.709Z,58
2018-09-16T10:21:14.406Z,58
2018-09-16T10:22:04.745Z,58.1
2018-09-16T10:22:54.515Z,58.1
2018-09-16T10:23:44.931Z,58.2
2018-09-16T10:24:34.872Z,58.3
2018-09-16T10:25:24.986Z,58.3
2018-09-16T10:26:15.419Z,58.4
2018-09-16T10:27:04.884Z,58.5
2018-09-16T10:27:55.464Z,58.6
2018-09-16T10:28:44.690Z,58.7
2018-09-16T10:29:35.021Z,58.8
2018-09-16T10:30:25.654Z,58.8
2018-09-16T10:31:15.461Z,58.9
2018-09-16T10:32:04.976Z,58.9
2018-09-16T10:32:55.546Z,59
2018-09-16T10:33:45.073Z,59.1
2018-09-16T10:34:35.414Z,59.2
2018-09-16T10:35:26.077Z,59.3
2018-09-16T10:36:15.774Z,59.3
2018-09-16T10:37:05.978Z,59.4
2018-09-16T10:37:55.666Z,59.5
2018-09-16T10:38:45.955Z,59.6
2018-09-16T10:39:35.798Z,59.6
2018-09-16T10:40:26.584Z,59.8
2018-09-16T10:41:17.514Z,59.9
2018-09-16T10:42:07.006Z,59.9
2018-09-16T10:42:57.120Z,60.1
2018-09-16T10:43:46.694Z,60.1
2018-09-16T10:44:36.245Z,60.3
2018-09-16T10:45:26.236Z,60.2
2018-09-16T10:46:16.548Z,59.9
2018-09-16T10:47:07.297Z,59.7
2018-09-16T10:47:57.315Z,59.6
2018-09-16T10:48:45.964Z,59.4
2018-09-16T10:49:36.588Z,59.3
2018-09-16T10:50:26.982Z,59.2
2018-09-16T10:51:17.068Z,59.1
2018-09-16T10:52:07.846Z,59.1
2018-09-16T10:52:57.402Z,58.9
2018-09-16T10:53:47.450Z,58.9
2018-09-16T10:54:36.941Z,58.9
2018-09-16T10:55:27.560Z,58.8
2018-09-16T10:56:17.376Z,59
2018-09-16T10:57:07.463Z,59
2018-09-16T10:57:57.515Z,58.9
2018-09-16T10:58:47.350Z,58.7
2018-09-16T11:00:27.392Z,58.5
2018-09-16T11:01:18.030Z,58.4
2018-09-16T11:02:07.539Z,58.4
2018-09-16T11:02:57.267Z,58.4
2018-09-16T11:03:47.917Z,58.4
2018-09-16T11:04:37.606Z,58.3
2018-09-16T11:05:27.899Z,58.3
2018-09-16T11:06:18.245Z,58.2
2018-09-16T11:07:07.721Z,58.1
2018-09-16T11:07:59.249Z,58.1
2018-09-16T11:08:48.605Z,58.1
2018-09-16T11:09:38.109Z,57.9
2018-09-16T11:10:27.954Z,57.9
2018-09-16T11:11:18.291Z,57.9
2018-09-16T11:12:08.882Z,57.8
2018-09-16T11:12:59.444Z,57.8
2018-09-16T11:13:48.439Z,57.8
2018-09-16T11:14:38.259Z,58.1
2018-09-16T11:15:28.849Z,58.3
2018-09-16T11:17:08.954Z,58.6
2018-09-16T11:17:59.286Z,58.4
2018-09-16T11:18:49.327Z,58.3
2018-09-16T11:19:38.849Z,58.1
2018-09-16T11:20:28.646Z,58.1
2018-09-16T11:21:19.006Z,58
2018-09-16T11:22:09.959Z,58
2018-09-16T11:22:59.345Z,57.9
2018-09-16T11:23:50.058Z,57.9
2018-09-16T11:24:39.247Z,57.8
2018-09-16T11:25:28.828Z,57.7
2018-09-16T11:26:18.856Z,57.6
2018-09-16T11:27:09.530Z,57.6
2018-09-16T11:27:59.028Z,57.5
2018-09-16T11:28:49.492Z,57.4
2018-09-16T11:29:39.662Z,57.4
2018-09-16T11:30:29.421Z,57.3
2018-09-16T11:31:20.057Z,57.3
2018-09-16T11:32:09.582Z,57.3
2018-09-16T11:33:00.115Z,57.2
2018-09-16T11:33:50.027Z,57.2
2018-09-16T11:34:40.254Z,57.1
2018-09-16T11:35:30.691Z,57.1
2018-09-16T11:36:20.690Z,57.1
2018-09-16T11:37:10.460Z,57
2018-09-16T11:37:59.692Z,57
2018-09-16T11:38:51.087Z,56.9
2018-09-16T11:39:40.507Z,57.1
2018-09-16T11:40:29.949Z,57.3
2018-09-16T11:41:20.310Z,57.4
2018-09-16T11:42:11.158Z,57.4
2018-09-16T11:43:00.914Z,57.6
2018-09-16T11:44:40.984Z,57.6
2018-09-16T11:45:31.394Z,57.3
2018-09-16T11:46:20.616Z,57.1
2018-09-16T11:47:11.275Z,56.9
2018-09-16T11:48:01.061Z,56.7
2018-09-16T11:48:51.884Z,56.6
2018-09-16T11:49:41.505Z,56.4
2018-09-16T11:50:30.648Z,56.3
2018-09-16T11:51:20.697Z,56.2
2018-09-16T11:52:10.835Z,56.1
2018-09-16T11:53:01.672Z,56
2018-09-16T11:53:51.729Z,55.9
2018-09-16T11:54:41.593Z,55.8
2018-09-16T11:55:31.882Z,55.7
2018-09-16T11:56:21.357Z,55.6
2018-09-16T11:57:11.737Z,55.5
2018-09-16T11:58:02.044Z,55.4
2018-09-16T11:58:52.142Z,55.4
2018-09-16T11:59:42.757Z,55.3
2018-09-16T12:00:32.262Z,55.4
2018-09-16T12:01:22.295Z,55.6
2018-09-16T12:02:13.490Z,55.6
2018-09-16T12:03:02.221Z,55.6
2018-09-16T12:03:52.539Z,55.5
2018-09-16T12:04:43.610Z,55.6
2018-09-16T12:05:32.381Z,55.8
2018-09-16T12:06:22.711Z,56.1